createdAt,value
2023-04-18T00:00:31.536Z,53.60
2023-04-18T00:02:59.262Z,54.79
2023-04-18T00:05:27.943Z,54.76
2023-04-18T00:07:54.675Z,54.85
2023-04-18T00:10:21.513Z,55.10
2023-04-18T00:12:49.034Z,55.14
2023-04-18T00:15:15.978Z,55.12
2023-04-18T00:17:42.982Z,55.30
2023-04-18T00:20:13.468Z,55.05
2023-04-18T00:22:42.751Z,54.89
2023-04-18T00:25:11.078Z,54.95
2023-04-18T00:27:41.672Z,55.33
2023-04-18T00:30:09.182Z,55.95
2023-04-18T00:32:37.815Z,54.78
2023-04-18T00:35:05.157Z,56.73
2023-04-18T00:37:31.826Z,56.87
2023-04-18T00:39:58.704Z,56.61
2023-04-18T00:42:29.434Z,56.10
2023-04-18T00:44:56.473Z,57.10
2023-04-18T00:47:23.311Z,57.29
2023-04-18T00:49:50.522Z,57.89
2023-04-18T00:52:18.545Z,56.93
2023-04-18T00:54:46.731Z,56.77
2023-04-18T00:57:13.733Z,56.90
2023-04-18T00:59:40.799Z,56.61
2023-04-18T01:02:07.950Z,56.94
2023-04-18T01:04:35.031Z,55.73
2023-04-18T01:07:02.322Z,56.13
2023-04-18T01:09:29.420Z,56.31
2023-04-18T01:11:56.274Z,55.15
2023-04-18T01:14:23.445Z,53.95
2023-04-18T01:16:50.149Z,54.45
2023-04-18T01:19:18.872Z,55.76
2023-04-18T01:21:45.686Z,54.80
2023-04-18T01:24:15.626Z,54.93
2023-04-18T01:26:44.841Z,55.03
2023-04-18T01:29:12.228Z,55.19
2023-04-18T01:31:40.033Z,55.85
2023-04-18T01:34:07.725Z,55.20
2023-04-18T01:36:35.532Z,55.06
2023-04-18T01:39:02.685Z,54.76
2023-04-18T01:41:32.572Z,55.28
2023-04-18T01:43:59.908Z,55.11
2023-04-18T01:46:27.021Z,55.16
2023-04-18T01:48:54.023Z,55.49
2023-04-18T01:51:21.617Z,55.75
2023-04-18T01:53:48.319Z,56.22
2023-04-18T01:56:14.953Z,55.86
2023-04-18T01:58:41.797Z,56.29
2023-04-18T02:01:08.797Z,56.08
2023-04-18T02:03:35.791Z,57.03
2023-04-18T02:06:05.884Z,56.55
2023-04-18T02:08:35.658Z,56.46
2023-04-18T02:11:05.058Z,55.98
2023-04-18T02:13:32.098Z,55.99
2023-04-18T02:15:58.728Z,55.89
2023-04-18T02:18:26.005Z,56.32
2023-04-18T02:20:52.733Z,56.69
2023-04-18T02:23:21.723Z,57.27
2023-04-18T02:25:48.381Z,56.94
2023-04-18T02:28:17.503Z,56.09
2023-04-18T02:30:44.259Z,57.09
2023-04-18T02:33:11.017Z,56.84
2023-04-18T02:35:38.772Z,56.38
2023-04-18T02:38:05.848Z,57.21
2023-04-18T02:40:32.455Z,57.36
2023-04-18T02:42:59.667Z,56.95
2023-04-18T02:45:26.432Z,56.81
2023-04-18T02:47:56.453Z,57.34
2023-04-18T02:50:24.826Z,57.31
2023-04-18T02:52:53.275Z,57.60
2023-04-18T02:55:22.378Z,57.53
2023-04-18T02:57:49.197Z,58.01
2023-04-18T03:00:52.639Z,57.51
2023-04-18T03:03:38.107Z,57.65
2023-04-18T03:06:22.394Z,57.58
2023-04-18T03:08:49.142Z,57.78
2023-04-18T03:11:16.663Z,58.75
2023-04-18T03:13:43.566Z,58.62
2023-04-18T03:16:11.566Z,58.38
2023-04-18T03:18:39.663Z,58.86
2023-04-18T03:21:07.152Z,58.47
2023-04-18T03:23:34.688Z,58.69
2023-04-18T03:26:08.189Z,57.80
2023-04-18T03:28:37.740Z,58.37
2023-04-18T03:31:05.023Z,57.46
2023-04-18T03:33:34.376Z,56.97
2023-04-18T03:36:08.734Z,58.34
2023-04-18T03:38:35.485Z,58.05
2023-04-18T03:41:02.960Z,57.83
2023-04-18T03:43:33.779Z,57.99
2023-04-18T03:46:01.105Z,58.47
2023-04-18T03:48:29.096Z,58.71
2023-04-18T03:50:59.876Z,58.60
2023-04-18T03:53:26.893Z,58.38
2023-04-18T03:55:56.139Z,59.03
2023-04-18T03:58:29.451Z,58.76
2023-04-18T04:00:56.109Z,58.87
2023-04-18T04:03:22.817Z,58.78
2023-04-18T04:05:49.761Z,58.61
2023-04-18T04:08:16.508Z,58.84
2023-04-18T04:10:45.116Z,58.79
2023-04-18T04:13:11.966Z,59.45
2023-04-18T04:15:40.620Z,58.79
2023-04-18T04:18:09.871Z,59.05
2023-04-18T04:20:39.778Z,59.14
2023-04-18T04:23:13.726Z,59.13
2023-04-18T04:25:42.644Z,59.24
2023-04-18T04:28:22.956Z,59.56
2023-04-18T04:30:55.722Z,59.56
2023-04-18T04:33:25.515Z,58.75
2023-04-18T04:35:55.653Z,59.63
2023-04-18T04:38:25.893Z,59.65
2023-04-18T04:40:54.036Z,58.99
2023-04-18T04:43:21.712Z,58.63
2023-04-18T04:45:51.594Z,58.68
2023-04-18T04:48:22.609Z,58.64
2023-04-18T04:51:00.599Z,59.35
2023-04-18T04:53:32.257Z,59.40
2023-04-18T04:56:01.710Z,59.52
2023-04-18T04:58:28.512Z,59.23
2023-04-18T05:01:13.988Z,59.38
2023-04-18T05:03:41.011Z,59.40
2023-04-18T05:06:07.868Z,59.39
2023-04-18T05:08:34.816Z,59.56
2023-04-18T05:11:01.983Z,58.90
2023-04-18T05:13:28.706Z,58.90
2023-04-18T05:15:55.665Z,59.94
2023-04-18T05:18:22.389Z,59.81
2023-04-18T05:20:49.280Z,59.44
2023-04-18T05:23:16.311Z,59.81
2023-04-18T05:25:42.977Z,60.08
2023-04-18T05:28:09.727Z,59.97
2023-04-18T05:30:36.423Z,60.09
2023-04-18T05:33:03.626Z,60.60
2023-04-18T05:35:31.291Z,60.83
2023-04-18T05:37:58.868Z,60.51
2023-04-18T05:40:27.317Z,59.87
2023-04-18T05:42:53.938Z,59.81
2023-04-18T05:45:20.614Z,59.45
2023-04-18T05:47:47.554Z,59.53
2023-04-18T05:50:14.377Z,58.43
2023-04-18T05:52:41.126Z,59.41
2023-04-18T05:55:08.168Z,59.99
2023-04-18T05:57:34.924Z,60.45
2023-04-18T06:00:03.387Z,61.19
2023-04-18T06:02:39.487Z,61.61
2023-04-18T06:05:07.798Z,61.85
2023-04-18T06:07:34.798Z,61.16
2023-04-18T06:10:01.713Z,61.38
2023-04-18T06:12:28.793Z,60.81
2023-04-18T06:14:55.547Z,61.39
2023-04-18T06:17:22.147Z,60.99
2023-04-18T06:19:48.818Z,60.95
2023-04-18T06:22:15.679Z,59.93
2023-04-18T06:24:42.417Z,59.16
2023-04-18T06:27:17.562Z,58.66
2023-04-18T06:29:50.988Z,58.42
2023-04-18T06:32:17.664Z,57.56
2023-04-18T06:34:44.815Z,57.80
2023-04-18T06:37:11.795Z,56.92
2023-04-18T06:39:38.528Z,56.72
2023-04-18T06:42:05.580Z,56.68
2023-04-18T06:44:32.653Z,57.04
2023-04-18T06:46:59.460Z,56.52
2023-04-18T06:49:26.694Z,56.60
2023-04-18T06:51:53.574Z,56.13
2023-04-18T06:54:20.510Z,56.07
2023-04-18T06:56:47.448Z,56.01
2023-04-18T06:59:14.406Z,55.55
2023-04-18T07:01:42.259Z,55.60
2023-04-18T07:04:09.192Z,54.74
2023-04-18T07:06:36.497Z,55.59
2023-04-18T07:09:03.459Z,55.65
2023-04-18T07:11:30.158Z,55.61
2023-04-18T07:13:56.939Z,56.03
2023-04-18T07:16:23.732Z,53.91
2023-04-18T07:18:51.693Z,54.73
2023-04-18T07:21:19.221Z,55.10
2023-04-18T07:23:46.445Z,53.57
2023-04-18T07:26:13.737Z,51.90
2023-04-18T07:28:40.554Z,50.17
2023-04-18T07:31:11.283Z,51.30
2023-04-18T07:33:38.781Z,51.76
2023-04-18T07:36:06.180Z,50.13
2023-04-18T07:38:35.332Z,49.44
2023-04-18T07:41:03.000Z,50.74
2023-04-18T07:43:30.082Z,49.20
2023-04-18T07:45:56.837Z,49.05
2023-04-18T07:48:25.143Z,45.23
2023-04-18T07:50:52.031Z,46.06
2023-04-18T07:53:19.028Z,44.90
2023-04-18T07:55:46.668Z,45.25
2023-04-18T07:58:14.053Z,47.41
2023-04-18T08:00:42.687Z,45.94
2023-04-18T08:03:13.113Z,42.90
2023-04-18T08:05:41.372Z,43.08
2023-04-18T08:08:09.847Z,44.56
2023-04-18T08:10:37.058Z,44.02
2023-04-18T08:13:04.416Z,43.78
2023-04-18T08:15:32.960Z,42.85
2023-04-18T08:18:01.115Z,42.83
2023-04-18T08:20:28.079Z,41.98
2023-04-18T08:23:06.243Z,44.75
2023-04-18T08:25:36.307Z,40.66
2023-04-18T08:28:04.181Z,39.61
2023-04-18T08:30:31.460Z,40.21
2023-04-18T08:33:00.172Z,41.97
2023-04-18T08:35:27.172Z,41.67
2023-04-18T08:37:53.874Z,40.08
2023-04-18T08:40:20.829Z,42.91
2023-04-18T08:42:48.059Z,40.95
2023-04-18T08:45:15.059Z,41.11
2023-04-18T08:47:42.568Z,42.33
2023-04-18T08:50:10.598Z,42.15
2023-04-18T08:52:45.021Z,41.56
2023-04-18T08:55:12.113Z,41.80
2023-04-18T08:57:39.831Z,40.61
2023-04-18T09:00:10.499Z,41.38
2023-04-18T09:02:42.795Z,40.39
2023-04-18T09:05:20.103Z,41.90
2023-04-18T09:07:48.864Z,39.47
2023-04-18T09:10:34.855Z,42.08
2023-04-18T09:13:06.254Z,41.57
2023-04-18T09:15:34.475Z,42.24
2023-04-18T09:18:03.055Z,42.03
2023-04-18T09:20:35.879Z,39.26
2023-04-18T09:23:11.141Z,38.66
2023-04-18T09:25:49.141Z,38.73
2023-04-18T09:28:29.128Z,40.92
2023-04-18T09:31:11.937Z,40.01
2023-04-18T09:33:43.288Z,38.44
2023-04-18T09:36:18.826Z,39.61
2023-04-18T09:38:46.142Z,38.93
2023-04-18T09:41:15.703Z,39.30
2023-04-18T09:43:43.248Z,39.52
2023-04-18T09:46:10.968Z,38.74
2023-04-18T09:48:38.191Z,38.29
2023-04-18T09:51:10.090Z,38.83
2023-04-18T09:53:41.634Z,40.47
2023-04-18T09:56:29.664Z,39.54
2023-04-18T09:59:01.640Z,37.55
2023-04-18T10:01:29.579Z,38.58
2023-04-18T10:03:57.781Z,41.18
2023-04-18T10:06:27.371Z,37.32
2023-04-18T10:08:55.231Z,38.63
2023-04-18T10:11:24.249Z,39.01
2023-04-18T10:13:56.005Z,38.83
2023-04-18T10:16:23.230Z,39.88
2023-04-18T10:18:51.169Z,38.98
2023-04-18T10:21:18.128Z,37.75
2023-04-18T10:23:48.741Z,39.20
2023-04-18T10:26:15.691Z,37.25
2023-04-18T10:28:57.733Z,36.05
2023-04-18T10:31:29.244Z,34.48
2023-04-18T10:36:30.338Z,37.00
2023-04-18T10:39:21.453Z,38.29
2023-04-18T10:41:50.598Z,37.31
2023-04-18T10:44:19.604Z,37.05
2023-04-18T10:46:52.465Z,35.33
2023-04-18T10:49:26.879Z,35.35
2023-04-18T10:51:55.824Z,36.45
2023-04-18T10:54:35.912Z,35.13
2023-04-18T10:57:04.624Z,37.62
2023-04-18T10:59:34.186Z,37.12
2023-04-18T11:02:19.655Z,35.57
2023-04-18T11:04:54.518Z,36.12
2023-04-18T11:07:48.878Z,35.54
2023-04-18T11:10:24.541Z,34.89
2023-04-18T11:12:52.598Z,33.18
2023-04-18T11:15:22.246Z,34.40
2023-04-18T11:17:59.996Z,35.15
2023-04-18T11:20:27.387Z,35.66
2023-04-18T11:23:00.111Z,36.44
2023-04-18T11:25:32.298Z,34.99
2023-04-18T11:28:01.010Z,36.06
2023-04-18T11:30:29.784Z,35.41
2023-04-18T11:32:56.708Z,34.66
2023-04-18T11:35:23.515Z,35.58
2023-04-18T11:37:51.205Z,35.85
2023-04-18T11:40:18.287Z,36.70
2023-04-18T11:42:45.369Z,35.23
2023-04-18T11:45:13.831Z,36.07
2023-04-18T11:47:42.741Z,35.95
2023-04-18T11:50:11.613Z,34.39
2023-04-18T11:52:40.925Z,36.07
2023-04-18T11:55:18.386Z,33.82
2023-04-18T11:57:56.035Z,34.54
2023-04-18T12:00:38.615Z,35.20
2023-04-18T12:03:13.404Z,33.38
2023-04-18T12:05:41.013Z,35.70
2023-04-18T12:08:11.934Z,36.95
2023-04-18T12:10:52.452Z,34.50
2023-04-18T12:13:26.099Z,35.54
2023-04-18T12:15:54.140Z,36.18
2023-04-18T12:18:21.474Z,34.68
2023-04-18T12:20:54.215Z,33.92
2023-04-18T12:23:37.075Z,34.00
2023-04-18T12:26:11.478Z,33.19
2023-04-18T12:28:39.430Z,35.87
2023-04-18T12:31:09.122Z,36.57
2023-04-18T12:33:38.820Z,36.60
2023-04-18T12:36:06.157Z,37.38
2023-04-18T12:38:32.798Z,34.17
2023-04-18T12:40:59.657Z,31.99
2023-04-18T12:43:26.620Z,32.20
2023-04-18T12:45:53.659Z,31.79
2023-04-18T12:48:21.068Z,37.82
2023-04-18T12:50:48.034Z,36.02
2023-04-18T12:53:15.468Z,35.47
2023-04-18T12:55:42.329Z,35.22
2023-04-18T12:58:09.049Z,34.67
2023-04-18T13:00:35.914Z,33.92
2023-04-18T13:03:03.042Z,36.95
2023-04-18T13:05:33.101Z,34.62
2023-04-18T13:10:31.514Z,32.36
2023-04-18T13:12:58.330Z,35.69
2023-04-18T13:15:26.038Z,35.39
2023-04-18T13:17:53.219Z,34.35
2023-04-18T13:20:20.041Z,32.31
2023-04-18T13:22:46.741Z,35.37
2023-04-18T13:25:13.869Z,32.94
2023-04-18T13:27:42.010Z,32.43
2023-04-18T13:30:11.221Z,32.47
2023-04-18T13:32:39.323Z,33.88
2023-04-18T13:35:10.709Z,37.23
2023-04-18T13:37:38.289Z,36.95
2023-04-18T13:40:06.994Z,36.10
2023-04-18T13:42:35.592Z,34.58
2023-04-18T13:45:02.832Z,34.76
2023-04-18T13:47:30.077Z,36.35
2023-04-18T13:49:58.081Z,37.26
2023-04-18T13:52:25.688Z,36.94
2023-04-18T13:54:52.453Z,38.61
2023-04-18T13:57:19.156Z,37.62
2023-04-18T13:59:45.814Z,37.46
2023-04-18T14:02:13.355Z,33.85
2023-04-18T14:04:40.132Z,36.08
2023-04-18T14:07:07.997Z,35.82
2023-04-18T14:09:34.895Z,34.55
2023-04-18T14:12:02.150Z,37.61
2023-04-18T14:14:29.209Z,37.14
2023-04-18T14:16:56.108Z,37.13
2023-04-18T14:19:22.947Z,37.58
2023-04-18T14:21:49.829Z,38.10
2023-04-18T14:24:16.645Z,37.96
2023-04-18T14:26:43.965Z,34.39
2023-04-18T14:29:11.101Z,37.06
2023-04-18T14:31:38.163Z,37.80
2023-04-18T14:34:05.634Z,37.85
2023-04-18T14:36:32.718Z,38.82
2023-04-18T14:38:59.484Z,37.06
2023-04-18T14:41:26.243Z,36.60
2023-04-18T14:43:53.128Z,36.55
2023-04-18T14:46:21.084Z,35.77
2023-04-18T14:48:47.897Z,34.95
2023-04-18T14:51:16.528Z,37.22
2023-04-18T14:53:44.194Z,36.86
2023-04-18T14:56:11.141Z,35.55
2023-04-18T14:58:37.829Z,35.36
2023-04-18T15:01:05.002Z,35.73
2023-04-18T15:03:32.061Z,36.55
2023-04-18T15:05:59.043Z,36.33
2023-04-18T15:08:26.037Z,37.11
2023-04-18T15:10:52.736Z,36.10
2023-04-18T15:13:19.423Z,37.36
2023-04-18T15:15:53.585Z,35.97
2023-04-18T15:18:20.638Z,36.40
2023-04-18T15:20:47.519Z,36.98
2023-04-18T15:23:14.947Z,37.23
2023-04-18T15:25:42.749Z,35.76
2023-04-18T15:28:09.520Z,36.85
2023-04-18T15:30:36.446Z,38.94
2023-04-18T15:33:03.312Z,38.90
2023-04-18T15:35:30.219Z,37.50
2023-04-18T15:37:57.518Z,37.73
2023-04-18T15:40:24.492Z,37.60
2023-04-18T15:42:53.461Z,37.40
2023-04-18T15:45:20.995Z,37.68
2023-04-18T15:47:48.071Z,38.21
2023-04-18T15:50:16.155Z,38.82
2023-04-18T15:52:44.104Z,38.81
2023-04-18T15:55:13.056Z,39.57
2023-04-18T15:57:41.550Z,41.56
2023-04-18T16:00:19.770Z,41.78
2023-04-18T16:02:47.163Z,42.35
2023-04-18T16:05:14.246Z,41.91
2023-04-18T16:07:42.102Z,42.59
2023-04-18T16:10:10.479Z,41.88
2023-04-18T16:12:38.119Z,43.07
2023-04-18T16:15:09.350Z,45.40
2023-04-18T16:17:37.145Z,46.71
2023-04-18T16:20:06.057Z,48.45
2023-04-18T16:22:32.959Z,49.85
2023-04-18T16:24:59.744Z,53.33
2023-04-18T16:27:26.571Z,53.61
2023-04-18T16:29:53.800Z,53.78
2023-04-18T16:32:20.512Z,54.81
2023-04-18T16:34:47.207Z,56.71
2023-04-18T16:37:14.046Z,59.52
2023-04-18T16:39:40.789Z,57.38
2023-04-18T16:42:07.592Z,60.29
2023-04-18T16:44:34.286Z,60.62
2023-04-18T16:47:01.338Z,61.97
2023-04-18T16:49:28.091Z,61.05
2023-04-18T16:51:54.793Z,58.95
2023-04-18T16:54:21.600Z,55.65
2023-04-18T16:56:48.678Z,51.55
2023-04-18T16:59:15.759Z,46.98
2023-04-18T17:01:42.584Z,45.80
2023-04-18T17:04:09.413Z,52.56
2023-04-18T17:06:36.439Z,48.32
2023-04-18T17:09:06.425Z,47.78
2023-04-18T17:11:38.869Z,60.23
2023-04-18T17:14:06.509Z,62.25
2023-04-18T17:16:33.341Z,60.33
2023-04-18T17:19:00.700Z,62.38
2023-04-18T17:21:27.558Z,63.34
2023-04-18T17:23:54.794Z,62.90
2023-04-18T17:26:24.296Z,67.22
2023-04-18T17:28:51.360Z,65.44
2023-04-18T17:31:18.009Z,67.23
2023-04-18T17:33:45.570Z,66.05
2023-04-18T17:36:12.308Z,64.80
2023-04-18T17:38:40.551Z,64.18
2023-04-18T17:41:07.897Z,65.03
2023-04-18T17:43:34.569Z,65.78
2023-04-18T17:46:03.810Z,65.84
2023-04-18T17:48:30.846Z,65.75
2023-04-18T17:50:57.551Z,66.68
2023-04-18T17:53:24.458Z,67.35
2023-04-18T17:55:52.361Z,66.50
2023-04-18T17:58:19.946Z,66.85
2023-04-18T18:00:46.665Z,66.90
2023-04-18T18:03:17.582Z,66.92
2023-04-18T18:05:48.952Z,67.31
2023-04-18T18:08:15.975Z,68.59
2023-04-18T18:10:42.984Z,68.33
2023-04-18T18:13:10.052Z,68.05
2023-04-18T18:15:36.685Z,69.62
2023-04-18T18:18:03.524Z,70.92
2023-04-18T18:20:30.823Z,71.22
2023-04-18T18:22:59.675Z,71.06
2023-04-18T18:25:27.060Z,70.82
2023-04-18T18:27:54.742Z,70.57
2023-04-18T18:30:21.536Z,71.53
2023-04-18T18:32:48.429Z,72.02
2023-04-18T18:35:15.208Z,71.43
2023-04-18T18:37:42.071Z,71.68
2023-04-18T18:40:09.437Z,71.63
2023-04-18T18:42:36.692Z,71.43
2023-04-18T18:45:04.059Z,70.78
2023-04-18T18:47:30.968Z,70.63
2023-04-18T18:49:57.779Z,71.03
2023-04-18T18:52:24.880Z,70.52
2023-04-18T18:54:51.770Z,70.33
2023-04-18T18:57:18.430Z,70.84
2023-04-18T18:59:45.054Z,70.94
2023-04-18T19:02:11.998Z,71.24
2023-04-18T19:04:39.374Z,70.54
2023-04-18T19:07:06.329Z,70.83
2023-04-18T19:09:33.506Z,70.75
2023-04-18T19:12:01.165Z,70.94
2023-04-18T19:14:28.122Z,70.83
2023-04-18T19:16:56.607Z,70.75
2023-04-18T19:19:23.691Z,71.58
2023-04-18T19:21:50.378Z,71.37
2023-04-18T19:24:17.925Z,71.32
2023-04-18T19:26:44.645Z,72.10
2023-04-18T19:29:14.320Z,72.38
2023-04-18T19:31:43.573Z,72.30
2023-04-18T19:34:10.895Z,72.50
2023-04-18T19:36:37.691Z,71.49
2023-04-18T19:39:04.381Z,71.77
2023-04-18T19:41:31.328Z,72.04
2023-04-18T19:43:58.351Z,72.88
2023-04-18T19:46:25.147Z,72.38
2023-04-18T19:48:51.851Z,72.82
2023-04-18T19:51:18.588Z,71.79
2023-04-18T19:53:45.751Z,72.04
2023-04-18T19:56:14.290Z,71.32
2023-04-18T19:58:46.728Z,71.80
2023-04-18T20:01:18.855Z,71.33
2023-04-18T20:03:47.057Z,70.53
2023-04-18T20:06:14.215Z,70.33
2023-04-18T20:08:45.897Z,70.64
2023-04-18T20:11:16.765Z,71.20
2023-04-18T20:13:43.404Z,71.73
2023-04-18T20:16:12.164Z,72.08
2023-04-18T20:18:41.475Z,72.30
2023-04-18T20:21:09.382Z,71.75
2023-04-18T20:23:36.963Z,71.38
2023-04-18T20:26:04.496Z,71.23
2023-04-18T20:28:31.970Z,71.44
2023-04-18T20:30:59.244Z,71.59
2023-04-18T20:33:26.194Z,72.19
2023-04-18T20:35:54.710Z,72.41
2023-04-18T20:38:25.962Z,71.81
2023-04-18T20:40:54.265Z,71.63
2023-04-18T20:43:22.716Z,68.77
2023-04-18T20:45:53.839Z,68.41
2023-04-18T20:48:21.166Z,68.36
2023-04-18T20:50:51.441Z,69.23
2023-04-18T20:53:20.759Z,69.77
2023-04-18T20:55:48.260Z,68.80
2023-04-18T20:58:14.944Z,69.49
2023-04-18T21:00:41.781Z,70.07
2023-04-18T21:03:08.747Z,69.78
2023-04-18T21:05:35.696Z,69.78
2023-04-18T21:08:02.436Z,70.05
2023-04-18T21:10:29.056Z,70.14
2023-04-18T21:12:57.330Z,69.21
2023-04-18T21:15:24.263Z,70.32
2023-04-18T21:17:51.346Z,70.15
2023-04-18T21:20:18.557Z,70.71
2023-04-18T21:22:45.308Z,68.78
2023-04-18T21:25:12.082Z,69.36
2023-04-18T21:27:38.863Z,68.79
2023-04-18T21:30:06.689Z,68.88
2023-04-18T21:32:33.597Z,68.31
2023-04-18T21:35:01.503Z,68.23
2023-04-18T21:37:28.628Z,68.34
2023-04-18T21:39:55.577Z,69.35
2023-04-18T21:42:22.338Z,70.60
2023-04-18T21:44:49.050Z,68.57
2023-04-18T21:47:15.959Z,67.96
2023-04-18T21:49:42.937Z,67.35
2023-04-18T21:52:09.766Z,67.50
2023-04-18T21:54:36.426Z,67.83
2023-04-18T21:57:03.352Z,68.12
2023-04-18T21:59:30.617Z,68.36
2023-04-18T22:01:57.369Z,67.91
2023-04-18T22:04:26.206Z,66.69
2023-04-18T22:06:54.271Z,67.54
2023-04-18T22:09:21.432Z,67.56
2023-04-18T22:11:48.428Z,67.64
2023-04-18T22:14:15.256Z,67.68
2023-04-18T22:16:42.319Z,68.43
2023-04-18T22:19:09.107Z,67.46
2023-04-18T22:21:36.048Z,67.93
2023-04-18T22:24:03.048Z,69.11
2023-04-18T22:26:29.755Z,69.08
2023-04-18T22:28:56.403Z,67.66
2023-04-18T22:31:23.188Z,66.59
2023-04-18T22:33:50.045Z,66.73
2023-04-18T22:36:16.810Z,66.35
2023-04-18T22:38:43.523Z,66.38
2023-04-18T22:41:10.357Z,65.66
2023-04-18T22:43:37.021Z,66.64
2023-04-18T22:46:03.753Z,65.98
2023-04-18T22:48:31.141Z,65.95
2023-04-18T22:50:57.885Z,66.20
2023-04-18T22:53:24.553Z,65.57
2023-04-18T22:55:51.254Z,65.46
2023-04-18T22:58:17.939Z,65.04
2023-04-18T23:00:44.815Z,65.93
2023-04-18T23:03:11.596Z,64.98
2023-04-18T23:05:38.561Z,65.14
2023-04-18T23:08:06.970Z,65.31
2023-04-18T23:10:34.157Z,65.85
2023-04-18T23:13:00.957Z,65.71
2023-04-18T23:15:27.659Z,65.74
2023-04-18T23:17:54.500Z,65.93
2023-04-18T23:20:21.776Z,67.28
2023-04-18T23:22:51.344Z,67.23
2023-04-18T23:25:19.355Z,66.74
2023-04-18T23:27:46.271Z,67.24
2023-04-18T23:30:13.129Z,67.42
2023-04-18T23:32:39.756Z,67.36
2023-04-18T23:35:06.960Z,67.68
2023-04-18T23:37:33.615Z,67.01
2023-04-18T23:40:00.577Z,67.36
2023-04-18T23:42:27.465Z,67.72
2023-04-18T23:44:54.650Z,67.47
2023-04-18T23:47:21.833Z,67.51
2023-04-18T23:49:48.636Z,67.50
2023-04-18T23:52:15.430Z,66.73
2023-04-18T23:54:42.236Z,67.23
2023-04-18T23:57:08.942Z,67.63
2023-04-18T23:59:35.654Z,67.48
